createdAt,value
2019-02-28T00:00:37.226Z,22.17
2019-02-28T00:01:37.492Z,15.85
2019-02-28T00:02:38.580Z,20.85
2019-02-28T00:03:39.591Z,23.83
2019-02-28T00:04:40.600Z,18.32
2019-02-28T00:05:41.630Z,20.65
2019-02-28T00:06:44.005Z,19.73
2019-02-28T00:07:45.551Z,20.80
2019-02-28T00:08:46.567Z,23.20
2019-02-28T00:09:47.602Z,18.57
2019-02-28T00:10:48.896Z,22.22
2019-02-28T00:11:49.914Z,18.73
2019-02-28T00:12:50.911Z,23.57
2019-02-28T00:13:52.391Z,19.25
2019-02-28T00:14:54.878Z,19.52
2019-02-28T00:15:55.880Z,28.07
2019-02-28T00:16:56.896Z,21.65
2019-02-28T00:17:57.915Z,24.50
2019-02-28T00:18:58.937Z,19.37
2019-02-28T00:19:59.944Z,21.05
2019-02-28T00:21:06.110Z,21.00
2019-02-28T00:22:04.847Z,26.00
2019-02-28T00:23:05.863Z,21.05
2019-02-28T00:24:06.878Z,22.00
2019-02-28T00:25:08.910Z,21.48
2019-02-28T00:26:11.648Z,21.80
2019-02-28T00:27:12.830Z,24.65
2019-02-28T00:28:13.839Z,25.05
2019-02-28T00:29:14.851Z,19.67
2019-02-28T00:30:15.872Z,18.40
2019-02-28T00:31:16.885Z,20.57
2019-02-28T00:32:17.901Z,25.43
2019-02-28T00:33:18.911Z,23.20
2019-02-28T00:34:19.930Z,21.97
2019-02-28T00:35:20.957Z,23.55
2019-02-28T00:36:21.960Z,28.10
2019-02-28T00:37:24.652Z,23.27
2019-02-28T00:38:29.465Z,21.45
2019-02-28T00:39:31.451Z,20.48
2019-02-28T00:40:31.777Z,19.60
2019-02-28T00:41:32.794Z,21.42
2019-02-28T00:42:33.805Z,21.07
2019-02-28T00:43:34.827Z,24.10
2019-02-28T00:44:35.839Z,21.52
2019-02-28T00:45:37.358Z,19.10
2019-02-28T00:46:44.061Z,28.40
2019-02-28T00:47:41.497Z,24.87
2019-02-28T00:48:42.524Z,22.10
2019-02-28T00:49:43.548Z,23.80
2019-02-28T00:50:44.561Z,21.00
2019-02-28T00:51:45.593Z,23.22
2019-02-28T00:52:46.608Z,22.45
2019-02-28T00:53:47.620Z,21.40
2019-02-28T00:54:48.629Z,21.17
2019-02-28T00:55:49.648Z,28.10
2019-02-28T00:56:52.517Z,28.38
2019-02-28T00:57:55.383Z,25.45
2019-02-28T00:58:56.568Z,23.30
2019-02-28T00:59:57.619Z,21.48
2019-02-28T01:00:58.643Z,22.02
2019-02-28T01:01:59.652Z,22.52
2019-02-28T01:03:00.671Z,22.60
2019-02-28T01:04:01.692Z,20.62
2019-02-28T01:05:06.037Z,20.52
2019-02-28T01:06:10.575Z,25.80
2019-02-28T01:07:10.352Z,25.40
2019-02-28T01:08:11.770Z,23.35
2019-02-28T01:09:12.775Z,23.62
2019-02-28T01:10:14.096Z,17.67
2019-02-28T01:11:15.127Z,25.48
2019-02-28T01:12:19.199Z,22.05
2019-02-28T01:13:19.364Z,19.50
2019-02-28T01:14:20.379Z,23.02
2019-02-28T01:15:21.401Z,17.95
2019-02-28T01:16:22.433Z,27.70
2019-02-28T01:17:24.110Z,20.12
2019-02-28T01:18:26.404Z,21.97
2019-02-28T01:19:27.412Z,25.72
2019-02-28T01:20:28.424Z,21.12
2019-02-28T01:21:29.447Z,25.05
2019-02-28T01:22:30.462Z,17.82
2019-02-28T01:23:31.472Z,20.43
2019-02-28T01:24:34.779Z,20.80
2019-02-28T01:25:37.162Z,24.40
2019-02-28T01:26:38.329Z,22.42
2019-02-28T01:27:39.335Z,22.93
2019-02-28T01:28:40.347Z,23.50
2019-02-28T01:29:41.364Z,19.73
2019-02-28T01:30:42.383Z,26.12
2019-02-28T01:31:43.487Z,19.95
2019-02-28T01:32:49.994Z,23.52
2019-02-28T01:33:47.443Z,22.87
2019-02-28T01:34:48.453Z,20.72
2019-02-28T01:35:49.464Z,24.65
2019-02-28T01:36:50.488Z,19.65
2019-02-28T01:37:52.346Z,23.77
2019-02-28T01:38:57.787Z,19.42
2019-02-28T01:39:56.928Z,22.17
2019-02-28T01:40:57.945Z,21.73
2019-02-28T01:41:58.982Z,27.17
2019-02-28T01:42:59.980Z,20.15
2019-02-28T01:44:02.709Z,21.68
2019-02-28T01:45:07.011Z,24.98
2019-02-28T01:46:09.468Z,22.25
2019-02-28T01:47:10.488Z,21.27
2019-02-28T01:48:11.680Z,17.80
2019-02-28T01:49:12.692Z,22.90
2019-02-28T01:50:13.711Z,21.75
2019-02-28T01:51:14.720Z,22.50
2019-02-28T01:52:15.744Z,20.45
2019-02-28T01:53:19.584Z,21.10
2019-02-28T01:54:19.687Z,20.70
2019-02-28T01:55:20.703Z,18.50
2019-02-28T01:56:21.944Z,26.65
2019-02-28T01:57:22.969Z,20.20
2019-02-28T01:58:23.976Z,22.02
2019-02-28T01:59:25.414Z,21.07
2019-02-28T02:00:26.431Z,20.32
2019-02-28T02:01:28.478Z,23.42
2019-02-28T02:02:30.364Z,20.32
2019-02-28T02:03:31.384Z,21.27
2019-02-28T02:04:32.408Z,20.32
2019-02-28T02:05:33.508Z,23.38
2019-02-28T02:06:34.524Z,29.98
2019-02-28T02:07:36.009Z,21.42
2019-02-28T02:08:37.809Z,20.20
2019-02-28T02:09:42.595Z,18.40
2019-02-28T02:10:42.477Z,22.15
2019-02-28T02:11:43.489Z,23.47
2019-02-28T02:12:44.503Z,19.27
2019-02-28T02:13:45.539Z,19.45
2019-02-28T02:14:46.561Z,19.17
2019-02-28T02:15:50.941Z,27.22
2019-02-28T02:16:50.490Z,23.32
2019-02-28T02:17:51.516Z,24.65
2019-02-28T02:18:52.532Z,17.62
2019-02-28T02:19:53.537Z,23.22
2019-02-28T02:20:54.543Z,25.02
2019-02-28T02:21:55.640Z,22.75
2019-02-28T02:22:56.663Z,24.82
2019-02-28T02:23:57.912Z,19.02
2019-02-28T02:24:59.382Z,24.20
2019-02-28T02:26:01.839Z,24.45
2019-02-28T02:27:02.856Z,20.25
2019-02-28T02:28:03.887Z,22.35
2019-02-28T02:29:04.897Z,21.85
2019-02-28T02:30:15.101Z,25.35
2019-02-28T02:31:15.132Z,23.92
2019-02-28T02:32:16.164Z,20.37
2019-02-28T02:33:17.182Z,23.25
2019-02-28T02:34:18.188Z,19.55
2019-02-28T02:35:19.197Z,24.05
2019-02-28T02:36:20.209Z,19.17
2019-02-28T02:37:21.227Z,23.07
2019-02-28T02:38:22.244Z,20.90
2019-02-28T02:39:23.279Z,23.80
2019-02-28T02:40:24.389Z,19.45
2019-02-28T02:41:25.444Z,19.27
2019-02-28T02:42:26.459Z,17.32
2019-02-28T02:43:27.480Z,20.77
2019-02-28T02:44:31.762Z,23.87
2019-02-28T02:45:31.403Z,21.65
2019-02-28T02:46:32.425Z,24.32
2019-02-28T02:47:33.869Z,22.65
2019-02-28T02:48:38.567Z,23.10
2019-02-28T02:49:37.801Z,21.57
2019-02-28T02:50:38.813Z,22.20
2019-02-28T02:51:39.833Z,23.02
2019-02-28T02:52:41.223Z,21.48
2019-02-28T02:53:43.319Z,21.60
2019-02-28T02:54:44.658Z,23.32
2019-02-28T02:55:45.701Z,22.73
2019-02-28T02:56:46.709Z,22.20
2019-02-28T02:57:51.804Z,21.68
2019-02-28T02:58:50.648Z,22.17
2019-02-28T02:59:51.662Z,22.02
2019-02-28T03:00:52.672Z,22.05
2019-02-28T03:01:56.195Z,22.95
2019-02-28T03:02:56.603Z,22.55
2019-02-28T03:03:57.609Z,20.95
2019-02-28T03:04:59.531Z,23.77
2019-02-28T03:06:00.737Z,21.95
2019-02-28T03:07:01.745Z,22.35
2019-02-28T03:08:02.772Z,18.62
2019-02-28T03:09:04.981Z,25.43
2019-02-28T03:10:09.003Z,25.65
2019-02-28T03:11:10.016Z,24.25
2019-02-28T03:12:11.034Z,21.25
2019-02-28T03:13:12.049Z,24.10
2019-02-28T03:14:16.348Z,20.62
2019-02-28T03:15:17.001Z,26.30
2019-02-28T03:16:18.060Z,21.05
2019-02-28T03:17:19.070Z,26.82
2019-02-28T03:18:20.843Z,21.23
2019-02-28T03:19:22.807Z,23.50
2019-02-28T03:20:23.821Z,23.42
2019-02-28T03:21:24.827Z,21.97
2019-02-28T03:22:29.911Z,19.48
2019-02-28T03:23:28.776Z,21.30
2019-02-28T03:24:29.784Z,22.67
2019-02-28T03:25:30.798Z,23.65
2019-02-28T03:26:31.814Z,20.37
2019-02-28T03:27:32.825Z,20.02
2019-02-28T03:28:33.854Z,17.92
2019-02-28T03:29:34.989Z,21.77
2019-02-28T03:30:36.021Z,22.02
2019-02-28T03:31:37.023Z,19.87
2019-02-28T03:32:42.025Z,22.17
2019-02-28T03:33:40.989Z,18.67
2019-02-28T03:34:55.001Z,25.40
2019-02-28T03:35:44.914Z,23.07
2019-02-28T03:36:55.341Z,21.10
2019-02-28T03:37:48.849Z,20.45
2019-02-28T03:38:50.121Z,25.45
2019-02-28T03:39:51.274Z,21.33
2019-02-28T03:40:52.281Z,22.75
2019-02-28T03:41:54.258Z,19.02
2019-02-28T03:42:55.543Z,23.52
2019-02-28T03:43:56.627Z,21.02
2019-02-28T03:44:58.229Z,24.75
2019-02-28T03:45:59.549Z,22.25
2019-02-28T03:47:00.580Z,20.10
2019-02-28T03:48:01.587Z,20.40
2019-02-28T03:49:02.797Z,24.02
2019-02-28T03:50:04.922Z,27.62
2019-02-28T03:51:05.934Z,20.85
2019-02-28T03:52:07.045Z,22.48
2019-02-28T03:53:08.072Z,18.73
2019-02-28T03:54:09.088Z,24.82
2019-02-28T03:55:12.511Z,19.25
2019-02-28T03:56:14.679Z,18.85
2019-02-28T03:57:16.730Z,21.70
2019-02-28T03:58:17.852Z,24.85
2019-02-28T03:59:20.161Z,22.00
2019-02-28T04:00:22.313Z,20.40
2019-02-28T04:01:23.317Z,19.52
2019-02-28T04:02:24.333Z,22.15
2019-02-28T04:03:25.355Z,20.65
2019-02-28T04:04:26.481Z,24.40
2019-02-28T04:05:28.420Z,20.25
2019-02-28T04:06:29.710Z,23.47
2019-02-28T04:07:30.741Z,20.75
2019-02-28T04:08:31.790Z,22.75
2019-02-28T04:09:32.799Z,21.52
2019-02-28T04:10:33.817Z,21.62
2019-02-28T04:11:34.867Z,22.13
2019-02-28T04:12:36.213Z,22.87
2019-02-28T04:13:37.236Z,20.75
2019-02-28T04:14:38.257Z,20.20
2019-02-28T04:15:43.276Z,20.23
2019-02-28T04:16:42.200Z,22.35
2019-02-28T04:17:43.289Z,20.72
2019-02-28T04:18:46.366Z,23.85
2019-02-28T04:19:47.221Z,21.95
2019-02-28T04:20:48.236Z,20.57
2019-02-28T04:21:49.249Z,22.05
2019-02-28T04:22:50.265Z,21.73
2019-02-28T04:23:51.445Z,21.85
2019-02-28T04:24:52.471Z,21.12
2019-02-28T04:25:56.827Z,18.60
2019-02-28T04:26:56.392Z,21.65
2019-02-28T04:27:57.401Z,19.17
2019-02-28T04:28:58.429Z,20.35
2019-02-28T04:30:06.598Z,20.12
2019-02-28T04:31:02.354Z,19.62
2019-02-28T04:32:03.356Z,23.38
2019-02-28T04:33:04.364Z,20.52
2019-02-28T04:34:05.408Z,22.17
2019-02-28T04:35:06.821Z,21.37
2019-02-28T04:36:07.852Z,20.02
2019-02-28T04:37:09.748Z,18.00
2019-02-28T04:38:10.872Z,25.30
2019-02-28T04:39:11.896Z,22.22
2019-02-28T04:40:12.909Z,20.65
2019-02-28T04:41:13.919Z,25.35
2019-02-28T04:42:14.943Z,22.42
2019-02-28T04:43:15.964Z,22.15
2019-02-28T04:44:18.280Z,22.35
2019-02-28T04:45:20.040Z,22.95
2019-02-28T04:46:21.063Z,23.65
2019-02-28T04:47:22.071Z,23.32
2019-02-28T04:48:23.079Z,22.85
2019-02-28T04:49:24.104Z,23.70
2019-02-28T04:50:25.125Z,22.55
2019-02-28T04:51:26.136Z,24.32
2019-02-28T04:52:27.139Z,24.65
2019-02-28T04:53:28.151Z,21.52
2019-02-28T04:54:29.177Z,19.42
2019-02-28T04:55:30.732Z,18.00
2019-02-28T04:56:31.824Z,22.58
2019-02-28T04:57:32.836Z,25.00
2019-02-28T04:58:33.848Z,18.82
2019-02-28T04:59:34.953Z,23.62
2019-02-28T05:00:37.819Z,20.82
2019-02-28T05:01:38.912Z,18.55
2019-02-28T05:02:39.925Z,26.07
2019-02-28T05:03:40.952Z,19.10
2019-02-28T05:04:41.966Z,21.75
2019-02-28T05:05:46.608Z,17.70
2019-02-28T05:06:46.310Z,22.58
2019-02-28T05:07:47.324Z,21.75
2019-02-28T05:08:48.332Z,20.95
2019-02-28T05:09:49.364Z,23.52
2019-02-28T05:10:55.658Z,18.73
2019-02-28T05:11:53.288Z,21.77
2019-02-28T05:12:54.309Z,23.27
2019-02-28T05:13:55.330Z,21.40
2019-02-28T05:14:58.367Z,20.92
2019-02-28T05:15:59.328Z,19.98
2019-02-28T05:17:00.430Z,20.08
2019-02-28T05:18:01.452Z,21.55
2019-02-28T05:19:02.492Z,19.50
2019-02-28T05:20:07.293Z,20.88
2019-02-28T05:21:09.100Z,22.17
2019-02-28T05:22:10.116Z,24.37
2019-02-28T05:23:11.128Z,16.75
2019-02-28T05:24:12.152Z,19.20
2019-02-28T05:25:17.621Z,21.27
2019-02-28T05:26:16.100Z,22.20
2019-02-28T05:27:17.105Z,25.00
2019-02-28T05:28:18.324Z,20.30
2019-02-28T05:29:19.638Z,22.10
2019-02-28T05:30:20.775Z,20.08
2019-02-28T05:31:24.141Z,19.62
2019-02-28T05:32:24.716Z,22.40
2019-02-28T05:33:25.729Z,20.72
2019-02-28T05:34:26.736Z,21.15
2019-02-28T05:35:27.764Z,19.27
2019-02-28T05:36:28.773Z,28.15
2019-02-28T05:37:29.785Z,19.80
2019-02-28T05:38:30.820Z,22.73
2019-02-28T05:39:31.837Z,20.27
2019-02-28T05:40:32.861Z,19.98
2019-02-28T05:41:33.881Z,21.65
2019-02-28T05:42:34.895Z,18.98
2019-02-28T05:43:35.940Z,18.73
2019-02-28T05:44:37.449Z,21.33
2019-02-28T05:45:39.886Z,22.13
2019-02-28T05:46:40.912Z,23.05
2019-02-28T05:47:46.388Z,22.40
2019-02-28T05:48:44.854Z,19.02
2019-02-28T05:49:45.911Z,23.15
2019-02-28T05:50:50.021Z,19.60
2019-02-28T05:51:49.852Z,20.52
2019-02-28T05:52:50.865Z,23.95
2019-02-28T05:53:51.876Z,22.48
2019-02-28T05:54:52.908Z,20.85
2019-02-28T05:55:58.824Z,22.27
2019-02-28T05:56:57.680Z,21.90
2019-02-28T05:57:58.703Z,21.97
2019-02-28T05:58:59.734Z,20.60
2019-02-28T06:00:01.918Z,21.33
2019-02-28T06:01:05.516Z,21.97
2019-02-28T06:02:06.695Z,23.40
2019-02-28T06:03:07.713Z,23.95
2019-02-28T06:04:08.736Z,22.27
2019-02-28T06:05:11.861Z,20.72
2019-02-28T06:06:12.680Z,22.37
2019-02-28T06:07:13.696Z,26.68
2019-02-28T06:08:14.711Z,21.17
2019-02-28T06:09:15.760Z,24.67
2019-02-28T06:10:16.837Z,19.57
2019-02-28T06:11:17.880Z,25.30
2019-02-28T06:12:18.894Z,22.40
2019-02-28T06:13:19.920Z,20.25
2019-02-28T06:14:26.689Z,23.42
2019-02-28T06:15:23.912Z,20.92
2019-02-28T06:16:24.932Z,27.58
2019-02-28T06:17:25.944Z,21.10
2019-02-28T06:18:32.507Z,25.10
2019-02-28T06:19:29.876Z,23.55
2019-02-28T06:20:30.884Z,23.70
2019-02-28T06:21:31.909Z,22.60
2019-02-28T06:22:36.195Z,24.25
2019-02-28T06:23:36.173Z,25.77
2019-02-28T06:24:37.190Z,24.10
2019-02-28T06:25:38.204Z,21.95
2019-02-28T06:26:39.219Z,26.12
2019-02-28T06:27:41.917Z,22.73
2019-02-28T06:28:43.265Z,20.37
2019-02-28T06:29:44.295Z,25.52
2019-02-28T06:30:45.640Z,28.25
2019-02-28T06:31:48.681Z,25.32
2019-02-28T06:32:49.584Z,23.65
2019-02-28T06:33:50.595Z,21.23
2019-02-28T06:34:51.614Z,24.37
2019-02-28T06:35:53.679Z,24.00
2019-02-28T06:36:55.586Z,25.43
2019-02-28T06:37:56.600Z,27.67
2019-02-28T06:38:57.640Z,24.87
2019-02-28T06:39:59.326Z,30.08
2019-02-28T06:41:00.528Z,24.92
2019-02-28T06:42:01.559Z,25.55
2019-02-28T06:43:02.556Z,24.80
2019-02-28T06:44:03.568Z,27.25
2019-02-28T06:45:08.288Z,24.37
2019-02-28T06:46:09.383Z,26.30
2019-02-28T06:47:11.275Z,25.23
2019-02-28T06:48:13.444Z,25.20
2019-02-28T06:49:14.459Z,18.80
2019-02-28T06:50:15.481Z,26.45
2019-02-28T06:51:17.547Z,26.40
2019-02-28T06:52:18.719Z,21.65
2019-02-28T06:53:19.740Z,26.10
2019-02-28T06:54:20.753Z,25.02
2019-02-28T06:55:25.674Z,25.05
2019-02-28T06:56:26.683Z,26.17
2019-02-28T06:57:27.942Z,29.63
2019-02-28T06:58:30.480Z,24.80
2019-02-28T06:59:31.912Z,21.35
2019-02-28T07:00:32.936Z,27.67
2019-02-28T07:01:33.961Z,24.80
2019-02-28T07:02:34.984Z,21.45
2019-02-28T07:03:38.913Z,24.40
2019-02-28T07:04:38.935Z,22.45
2019-02-28T07:05:39.947Z,27.02
2019-02-28T07:06:40.972Z,24.52
2019-02-28T07:07:41.988Z,25.80
2019-02-28T07:08:43.000Z,25.88
2019-02-28T07:09:44.020Z,25.43
2019-02-28T07:10:48.444Z,27.90
2019-02-28T07:11:47.996Z,24.57
2019-02-28T07:12:49.016Z,26.00
2019-02-28T07:13:50.070Z,28.65
2019-02-28T07:14:51.087Z,23.87
2019-02-28T07:15:52.097Z,27.25
2019-02-28T07:16:53.116Z,22.77
2019-02-28T07:17:54.133Z,22.32
2019-02-28T07:18:55.164Z,25.92
2019-02-28T07:20:01.307Z,28.62
2019-02-28T07:20:59.100Z,27.22
2019-02-28T07:22:00.132Z,23.70
2019-02-28T07:23:01.145Z,26.15
2019-02-28T07:24:02.741Z,25.62
2019-02-28T07:25:09.447Z,30.60
2019-02-28T07:26:09.660Z,24.02
2019-02-28T07:27:10.714Z,23.80
2019-02-28T07:28:11.808Z,24.27
2019-02-28T07:29:12.826Z,23.12
2019-02-28T07:30:19.284Z,27.35
2019-02-28T07:31:21.728Z,26.93
2019-02-28T07:32:23.740Z,23.15
2019-02-28T07:33:24.795Z,25.72
2019-02-28T07:34:25.897Z,22.65
2019-02-28T07:35:32.914Z,26.48
2019-02-28T07:36:29.828Z,25.32
2019-02-28T07:37:30.849Z,25.20
2019-02-28T07:38:31.872Z,23.18
2019-02-28T07:39:32.892Z,26.57
2019-02-28T07:40:33.916Z,24.70
2019-02-28T07:41:34.928Z,23.00
2019-02-28T07:42:37.566Z,26.50
2019-02-28T07:43:38.863Z,25.45
2019-02-28T07:44:40.208Z,24.40
2019-02-28T07:45:41.216Z,25.70
2019-02-28T07:46:43.311Z,31.25
2019-02-28T07:47:44.557Z,24.30
2019-02-28T07:48:45.898Z,26.57
2019-02-28T07:49:46.913Z,26.75
2019-02-28T07:50:47.924Z,28.95
2019-02-28T07:51:48.952Z,26.23
2019-02-28T07:52:49.972Z,27.32
2019-02-28T07:53:51.269Z,26.20
2019-02-28T07:54:55.522Z,22.32
2019-02-28T07:55:55.412Z,29.07
2019-02-28T07:56:56.416Z,23.47
2019-02-28T07:57:57.432Z,24.60
2019-02-28T07:58:58.449Z,20.25
2019-02-28T07:59:59.999Z,27.05
2019-02-28T08:01:01.196Z,21.85
2019-02-28T08:02:03.283Z,30.48
2019-02-28T08:03:05.023Z,24.02
2019-02-28T08:04:06.037Z,23.38
2019-02-28T08:05:10.367Z,27.05
2019-02-28T08:06:11.376Z,30.00
2019-02-28T08:07:14.772Z,25.75
2019-02-28T08:08:15.689Z,27.73
2019-02-28T08:09:25.053Z,26.02
2019-02-28T08:10:27.968Z,25.27
2019-02-28T08:11:28.968Z,24.07
2019-02-28T08:12:30.842Z,23.50
2019-02-28T08:13:34.652Z,24.67
2019-02-28T08:14:36.693Z,21.80
2019-02-28T08:15:37.710Z,24.02
2019-02-28T08:16:38.744Z,20.77
2019-02-28T08:17:40.599Z,26.57
2019-02-28T08:18:42.691Z,26.62
2019-02-28T08:19:43.812Z,25.80
2019-02-28T08:20:44.828Z,21.27
2019-02-28T08:21:50.235Z,24.35
2019-02-28T08:22:49.261Z,20.55
2019-02-28T08:23:50.275Z,23.73
2019-02-28T08:24:52.097Z,20.55
2019-02-28T08:25:53.300Z,25.35
2019-02-28T08:26:54.366Z,27.65
2019-02-28T08:27:59.186Z,25.05
2019-02-28T08:28:58.346Z,26.50
2019-02-28T08:29:59.352Z,26.80
2019-02-28T08:31:00.364Z,29.57
2019-02-28T08:32:06.715Z,26.70
2019-02-28T08:33:04.304Z,22.62
2019-02-28T08:34:05.367Z,29.48
2019-02-28T08:35:09.296Z,24.15
2019-02-28T08:36:12.520Z,21.80
2019-02-28T08:37:13.208Z,24.95
2019-02-28T08:38:14.267Z,21.93
2019-02-28T08:39:16.159Z,23.25
2019-02-28T08:40:19.804Z,26.27
2019-02-28T08:41:22.463Z,29.23
2019-02-28T08:42:23.751Z,24.55
2019-02-28T08:43:27.307Z,25.20
2019-02-28T08:44:27.726Z,19.17
2019-02-28T08:45:32.507Z,22.40
2019-02-28T08:46:31.692Z,24.67
2019-02-28T08:47:32.700Z,24.35
2019-02-28T08:48:34.933Z,23.38
2019-02-28T08:49:42.177Z,20.27
2019-02-28T08:50:39.070Z,22.27
2019-02-28T08:51:40.164Z,21.97
2019-02-28T08:52:42.263Z,21.90
2019-02-28T08:53:43.508Z,25.10
2019-02-28T08:54:44.521Z,21.80
2019-02-28T08:55:45.558Z,21.25
2019-02-28T08:56:49.737Z,22.80
2019-02-28T08:57:55.024Z,22.82
2019-02-28T08:58:52.449Z,20.97
2019-02-28T08:59:56.388Z,23.25
2019-02-28T09:00:56.398Z,19.00
2019-02-28T09:01:57.420Z,20.82
2019-02-28T09:02:58.432Z,21.10
2019-02-28T09:04:04.787Z,18.17
2019-02-28T09:05:06.611Z,21.60
2019-02-28T09:06:07.607Z,18.65
2019-02-28T09:07:08.753Z,22.95
2019-02-28T09:08:09.790Z,20.05
2019-02-28T09:09:11.431Z,19.77
2019-02-28T09:10:15.012Z,21.87
2019-02-28T09:11:20.636Z,21.55
2019-02-28T09:12:18.953Z,22.80
2019-02-28T09:13:19.960Z,19.77
2019-02-28T09:14:21.021Z,19.35
2019-02-28T09:15:22.149Z,18.15
2019-02-28T09:16:23.160Z,24.32
2019-02-28T09:17:24.176Z,20.45
2019-02-28T09:18:25.203Z,18.70
2019-02-28T09:19:26.231Z,18.95
2019-02-28T09:20:27.255Z,18.48
2019-02-28T09:21:28.272Z,22.40
2019-02-28T09:22:29.437Z,20.45
2019-02-28T09:23:30.446Z,21.30
2019-02-28T09:24:31.474Z,20.08
2019-02-28T09:25:32.480Z,16.37
2019-02-28T09:26:33.497Z,19.12
2019-02-28T09:27:35.309Z,19.17
2019-02-28T09:28:37.440Z,16.52
2019-02-28T09:29:38.473Z,15.93
2019-02-28T09:30:45.206Z,19.90
2019-02-28T09:31:46.220Z,18.67
2019-02-28T09:32:48.201Z,19.02
2019-02-28T09:33:49.880Z,14.75
2019-02-28T09:34:50.888Z,16.73
2019-02-28T09:35:51.921Z,16.57
2019-02-28T09:36:56.666Z,18.05
2019-02-28T09:37:55.877Z,19.98
2019-02-28T09:38:58.995Z,21.85
2019-02-28T09:39:59.837Z,17.80
2019-02-28T09:41:01.466Z,24.82
2019-02-28T09:42:03.768Z,21.68
2019-02-28T09:43:04.795Z,18.23
2019-02-28T09:44:07.064Z,19.00
2019-02-28T09:45:11.460Z,18.05
2019-02-28T09:46:15.500Z,20.52
2019-02-28T09:47:15.460Z,16.07
2019-02-28T09:48:16.481Z,15.90
2019-02-28T09:49:17.509Z,17.55
2019-02-28T09:50:22.529Z,17.95
2019-02-28T09:51:22.644Z,17.40
2019-02-28T09:52:23.655Z,15.88
2019-02-28T09:53:24.672Z,15.70
2019-02-28T09:54:25.692Z,16.05
2019-02-28T09:55:26.709Z,18.35
2019-02-28T09:56:27.739Z,18.87
2019-02-28T09:57:30.204Z,15.98
2019-02-28T09:58:33.299Z,18.90
2019-02-28T09:59:37.761Z,17.42
2019-02-28T10:00:37.253Z,16.45
2019-02-28T10:01:38.272Z,20.32
2019-02-28T10:02:40.425Z,20.95
2019-02-28T10:03:42.296Z,20.05
2019-02-28T10:04:43.393Z,16.50
2019-02-28T10:05:44.425Z,20.52
2019-02-28T10:06:48.471Z,20.43
2019-02-28T10:07:48.594Z,20.85
2019-02-28T10:08:49.720Z,18.85
2019-02-28T10:09:50.744Z,22.87
2019-02-28T10:10:52.469Z,19.07
2019-02-28T10:11:54.693Z,22.65
2019-02-28T10:12:56.867Z,18.87
2019-02-28T10:13:58.248Z,19.25
2019-02-28T10:15:00.552Z,24.35
2019-02-28T10:16:02.321Z,19.90
2019-02-28T10:17:03.476Z,23.95
2019-02-28T10:18:05.252Z,19.45
2019-02-28T10:19:06.508Z,18.37
2019-02-28T10:20:11.332Z,20.08
2019-02-28T10:21:12.340Z,19.00
2019-02-28T10:22:13.656Z,22.00
2019-02-28T10:23:14.665Z,20.82
2019-02-28T10:24:15.680Z,17.65
2019-02-28T10:25:16.708Z,16.80
2019-02-28T10:26:17.945Z,20.40
2019-02-28T10:27:19.037Z,16.45
2019-02-28T10:28:20.056Z,14.35
2019-02-28T10:29:21.091Z,16.32
2019-02-28T10:30:31.304Z,15.08
2019-02-28T10:31:36.127Z,19.07
2019-02-28T10:32:28.953Z,17.87
2019-02-28T10:33:29.977Z,13.18
2019-02-28T10:34:30.992Z,18.90
2019-02-28T10:35:33.460Z,17.70
2019-02-28T10:36:34.992Z,22.93
2019-02-28T10:37:36.104Z,15.65
2019-02-28T10:38:37.126Z,14.93
2019-02-28T10:39:40.244Z,14.85
2019-02-28T10:40:41.088Z,16.45
2019-02-28T10:41:42.104Z,21.48
2019-02-28T10:42:43.125Z,15.90
2019-02-28T10:43:49.795Z,21.02
2019-02-28T10:44:47.054Z,16.37
2019-02-28T10:45:48.084Z,17.20
2019-02-28T10:46:50.292Z,21.57
2019-02-28T10:47:52.016Z,14.13
2019-02-28T10:48:53.033Z,17.20
2019-02-28T10:49:55.380Z,17.37
2019-02-28T10:50:57.086Z,21.40
2019-02-28T10:51:59.448Z,18.90
2019-02-28T10:53:05.473Z,16.93
2019-02-28T10:54:04.372Z,17.25
2019-02-28T10:55:10.950Z,20.30
2019-02-28T10:56:11.975Z,16.42
2019-02-28T10:57:12.991Z,22.15
2019-02-28T10:58:15.520Z,16.87
2019-02-28T10:59:16.923Z,21.00
2019-02-28T11:00:32.824Z,16.17
2019-02-28T11:01:33.414Z,17.98
2019-02-28T11:02:34.533Z,17.37
2019-02-28T11:03:35.555Z,16.80
2019-02-28T11:04:42.876Z,16.10
2019-02-28T11:05:42.496Z,16.12
2019-02-28T11:06:43.614Z,13.88
2019-02-28T11:07:46.197Z,16.15
2019-02-28T11:08:48.155Z,17.17
2019-02-28T11:09:51.627Z,19.30
2019-02-28T11:10:52.730Z,17.30
2019-02-28T11:11:53.851Z,15.90
2019-02-28T11:12:57.137Z,18.00
2019-02-28T11:13:57.788Z,14.98
2019-02-28T11:14:58.884Z,15.60
2019-02-28T11:15:59.976Z,19.73
2019-02-28T11:17:01.019Z,18.55
2019-02-28T11:18:02.331Z,17.40
2019-02-28T11:19:03.543Z,14.70
2019-02-28T11:20:09.613Z,17.23
2019-02-28T11:21:11.080Z,16.42
2019-02-28T11:22:13.609Z,14.70
2019-02-28T11:23:15.914Z,17.20
2019-02-28T11:24:17.140Z,16.90
2019-02-28T11:25:21.491Z,16.05
2019-02-28T11:26:22.632Z,16.50
2019-02-28T11:27:23.688Z,16.75
2019-02-28T11:28:28.008Z,19.10
2019-02-28T11:29:27.708Z,17.60
2019-02-28T11:30:30.202Z,16.77
2019-02-28T11:31:31.324Z,15.20
2019-02-28T11:32:32.344Z,16.48
2019-02-28T11:33:33.484Z,19.00
2019-02-28T11:34:34.604Z,18.07
2019-02-28T11:35:35.716Z,13.32
2019-02-28T11:36:36.776Z,15.03
2019-02-28T11:37:38.284Z,13.15
2019-02-28T11:38:39.582Z,19.65
2019-02-28T11:39:40.597Z,18.07
2019-02-28T11:40:43.657Z,15.50
2019-02-28T11:41:44.890Z,14.70
2019-02-28T11:42:45.916Z,16.57
2019-02-28T11:43:46.931Z,18.87
2019-02-28T11:44:47.957Z,17.02
2019-02-28T11:45:49.087Z,15.68
2019-02-28T11:46:50.121Z,14.65
2019-02-28T11:47:52.724Z,15.28
2019-02-28T11:48:53.928Z,15.00
2019-02-28T11:49:56.057Z,13.80
2019-02-28T11:50:57.095Z,17.45
2019-02-28T11:51:58.116Z,16.40
2019-02-28T11:53:03.107Z,16.27
2019-02-28T11:54:02.044Z,15.53
2019-02-28T11:55:11.675Z,15.10
2019-02-28T11:56:12.731Z,12.85
2019-02-28T11:57:13.731Z,16.12
2019-02-28T11:58:17.625Z,15.23
2019-02-28T11:59:17.692Z,15.70
2019-02-28T12:00:35.675Z,14.38
2019-02-28T12:01:36.638Z,19.02
2019-02-28T12:02:37.720Z,17.15
2019-02-28T12:03:38.741Z,14.20
2019-02-28T12:04:40.458Z,16.85
2019-02-28T12:05:42.283Z,15.50
2019-02-28T12:06:43.308Z,14.25
2019-02-28T12:07:44.324Z,17.17
2019-02-28T12:08:45.760Z,14.85
2019-02-28T12:09:46.872Z,15.70
2019-02-28T12:10:47.888Z,17.07
2019-02-28T12:11:49.041Z,15.65
2019-02-28T12:12:50.174Z,12.53
2019-02-28T12:13:51.589Z,15.30
2019-02-28T12:14:54.098Z,16.40
2019-02-28T12:15:55.223Z,14.50
2019-02-28T12:16:56.474Z,15.63
2019-02-28T12:18:03.645Z,14.93
2019-02-28T12:19:00.403Z,15.03
2019-02-28T12:20:03.717Z,19.48
2019-02-28T12:21:05.050Z,15.50
2019-02-28T12:22:09.012Z,13.95
2019-02-28T12:23:09.084Z,13.88
2019-02-28T12:24:10.100Z,16.20
2019-02-28T12:25:13.641Z,17.23
2019-02-28T12:26:17.778Z,15.30
2019-02-28T12:27:17.580Z,12.10
2019-02-28T12:28:18.595Z,15.30
2019-02-28T12:29:19.610Z,14.33
2019-02-28T12:30:27.597Z,15.85
2019-02-28T12:31:28.617Z,15.68
2019-02-28T12:32:29.637Z,16.45
2019-02-28T12:33:30.664Z,18.20
2019-02-28T12:34:31.784Z,16.27
2019-02-28T12:35:40.009Z,16.55
2019-02-28T12:36:36.230Z,13.50
2019-02-28T12:37:37.289Z,15.32
2019-02-28T12:38:38.308Z,16.45
2019-02-28T12:39:39.356Z,14.85
2019-02-28T12:40:42.561Z,19.17
2019-02-28T12:41:44.242Z,15.55
2019-02-28T12:42:45.252Z,23.42
2019-02-28T12:43:46.276Z,13.65
2019-02-28T12:44:49.034Z,16.48
2019-02-28T12:45:50.196Z,18.10
2019-02-28T12:46:51.212Z,14.10
2019-02-28T12:47:52.344Z,14.13
2019-02-28T12:48:53.357Z,15.93
2019-02-28T12:49:57.035Z,14.83
2019-02-28T12:50:57.297Z,15.30
2019-02-28T12:51:58.328Z,12.55
2019-02-28T12:53:00.425Z,14.98
2019-02-28T12:54:01.445Z,15.78
2019-02-28T12:55:05.467Z,14.95
2019-02-28T12:56:06.499Z,17.50
2019-02-28T12:57:07.567Z,16.80
2019-02-28T12:58:10.484Z,16.80
2019-02-28T12:59:11.503Z,15.75
2019-02-28T13:00:15.737Z,17.42
2019-02-28T13:01:16.751Z,15.80
2019-02-28T13:02:17.813Z,15.90
2019-02-28T13:03:20.177Z,18.02
2019-02-28T13:04:21.777Z,20.12
2019-02-28T13:05:22.817Z,16.87
2019-02-28T13:06:24.805Z,18.62
2019-02-28T13:07:26.520Z,16.12
2019-02-28T13:08:27.517Z,16.23
2019-02-28T13:09:30.206Z,18.25
2019-02-28T13:10:31.503Z,15.05
2019-02-28T13:11:35.883Z,15.10
2019-02-28T13:12:35.748Z,17.12
2019-02-28T13:13:37.127Z,21.77